Time;durP1;ratioP1;P1;durP2;ratioP2;P2;SDS_P1;SDS_P2;PMS_P1;PMS_P2;Temp;Humidity;BMP_temperature;BMP_pressure;BME280_temperature;BME280_humidity;BME280_pressure;Samples;Min_cycle;Max_cycle;Signal;HPM_P1;HPM_P2
2022/04/02 00:01:50;;;;;;;19.10;15.20;;;;;;;;;;5046525;28;20335;-62
2022/04/02 00:04:17;;;;;;;19.13;15.23;;;;;;;;;;5058059;28;20207;-62
2022/04/02 00:06:45;;;;;;;16.83;14.00;;;;;;;;;;5043271;28;20207;-62
2022/04/02 00:09:12;;;;;;;18.80;14.20;;;;;;;;;;5021913;28;20223;-62
2022/04/02 00:11:39;;;;;;;18.53;14.73;;;;;;;;;;5035740;28;20226;-62
2022/04/02 00:14:07;;;;;;;18.37;14.07;;;;;;;;;;5026535;28;20349;-62
2022/04/02 00:16:34;;;;;;;17.70;14.03;;;;;;;;;;5036619;28;20337;-62
2022/04/02 00:19:02;;;;;;;19.27;15.33;;;;;;;;;;5041183;28;20206;-62
2022/04/02 00:21:29;;;;;;;16.63;13.47;;;;;;;;;;5036105;28;20224;-61
2022/04/02 00:23:56;;;;;;;15.83;12.33;;;;;;;;;;5034279;28;20216;-64
2022/04/02 00:26:24;;;;;;;15.77;12.73;;;;;;;;;;5032264;28;20684;-63
2022/04/02 00:28:52;;;;;;;14.27;12.20;;;;;;;;;;5040523;28;20210;-63
2022/04/02 00:31:20;;;;;;;16.10;12.33;;;;;;;;;;5060224;28;20260;-63
2022/04/02 00:33:49;;;;;;;17.13;13.13;;;;;;;;;;5040293;28;20712;-63
2022/04/02 00:36:18;;;;;;;16.43;13.17;;;;;;;;;;5035490;28;20232;-63
2022/04/02 00:38:46;;;;;;;17.50;14.33;;;;;;;;;;5044922;28;20214;-61
2022/04/02 00:41:16;;;;;;;18.27;14.37;;;;;;;;;;5035326;28;20227;-63
2022/04/02 00:43:58;;;;;;;15.33;12.37;;;;;;;;;;5030280;28;20295;-64
2022/04/02 00:46:26;;;;;;;15.57;12.33;;;;;;;;;;5020574;28;20304;-62
2022/04/02 00:48:54;;;;;;;16.93;13.10;;;;;;;;;;5037056;28;20309;-62
2022/04/02 00:51:22;;;;;;;17.70;13.90;;;;;;;;;;5027719;28;20231;-63
2022/04/02 00:53:53;;;;;;;17.47;13.33;;;;;;;;;;5041766;28;20224;-63
2022/04/02 00:56:21;;;;;;;19.17;13.90;;;;;;;;;;5045668;28;20210;-64
2022/04/02 00:58:49;;;;;;;16.50;13.20;;;;;;;;;;5046728;28;20589;-63
2022/04/02 01:01:16;;;;;;;17.60;13.60;;;;;;;;;;5029223;28;20218;-64
2022/04/02 01:03:44;;;;;;;17.93;13.87;;;;;;;;;;5046866;28;20210;-63
2022/04/02 01:06:12;;;;;;;21.57;14.50;;;;;;;;;;5031339;28;20217;-63
2022/04/02 01:08:40;;;;;;;18.47;15.33;;;;;;;;;;5036232;28;20225;-63
2022/04/02 01:11:09;;;;;;;19.50;14.67;;;;;;;;;;5045452;28;20338;-63
2022/04/02 01:13:36;;;;;;;18.50;14.67;;;;;;;;;;5029173;28;20672;-64
2022/04/02 01:16:03;;;;;;;23.00;14.63;;;;;;;;;;5039433;28;20208;-63
2022/04/02 01:18:31;;;;;;;22.00;15.20;;;;;;;;;;5027366;28;20221;-64
2022/04/02 01:20:58;;;;;;;26.73;14.93;;;;;;;;;;5030330;28;20233;-63
2022/04/02 01:23:29;;;;;;;27.73;15.30;;;;;;;;;;5036302;28;20202;-64
2022/04/02 01:26:00;;;;;;;23.33;16.13;;;;;;;;;;5041454;28;20213;-63
2022/04/02 01:28:35;;;;;;;27.00;15.27;;;;;;;;;;5033267;28;20211;-63
2022/04/02 01:31:06;;;;;;;37.63;17.23;;;;;;;;;;5034953;28;20222;-63
2022/04/02 01:33:34;;;;;;;53.97;19.10;;;;;;;;;;5030870;28;20608;-63
2022/04/02 01:36:03;;;;;;;28.20;17.30;;;;;;;;;;5039369;28;20298;-63
2022/04/02 01:38:30;;;;;;;95.90;17.33;;;;;;;;;;5043535;28;20256;-63
2022/04/02 01:40:58;;;;;;;108.87;19.33;;;;;;;;;;5046340;28;20226;-63
2022/04/02 01:43:26;;;;;;;76.47;19.07;;;;;;;;;;5040078;28;20206;-62
2022/04/02 01:45:57;;;;;;;91.53;16.80;;;;;;;;;;5043903;28;20203;-61
2022/04/02 01:48:25;;;;;;;44.10;18.37;;;;;;;;;;5034240;28;20217;-61
2022/04/02 01:50:52;;;;;;;79.43;18.47;;;;;;;;;;5027768;28;20223;-63
2022/04/02 01:53:20;;;;;;;103.27;20.37;;;;;;;;;;5031851;28;20206;-63
2022/04/02 01:55:49;;;;;;;179.13;21.97;;;;;;;;;;5046001;28;20559;-62
2022/04/02 01:58:17;;;;;;;163.17;22.43;;;;;;;;;;5040012;28;20202;-62
2022/04/02 02:00:46;;;;;;;131.57;22.10;;;;;;;;;;5046381;28;20837;-62
2022/04/02 02:03:14;;;;;;;114.67;20.33;;;;;;;;;;5042680;28;20217;-63
2022/04/02 02:05:42;;;;;;;165.10;22.67;;;;;;;;;;5027979;28;20264;-61
2022/04/02 02:08:10;;;;;;;113.40;22.97;;;;;;;;;;5038395;28;20240;-62
2022/04/02 02:10:37;;;;;;;56.97;21.87;;;;;;;;;;5030197;28;20619;-62
2022/04/02 02:13:05;;;;;;;116.63;23.27;;;;;;;;;;5037507;28;20215;-62
2022/04/02 02:15:32;;;;;;;102.07;22.57;;;;;;;;;;5033440;28;20210;-63
2022/04/02 02:18:00;;;;;;;136.50;22.73;;;;;;;;;;5039079;28;20206;-62
2022/04/02 02:20:27;;;;;;;144.70;24.03;;;;;;;;;;5047663;28;20207;-63
2022/04/02 02:22:55;;;;;;;121.97;22.93;;;;;;;;;;5029859;28;20209;-61
2022/04/02 02:25:22;;;;;;;36.90;21.90;;;;;;;;;;5032130;28;20211;-62
2022/04/02 02:27:50;;;;;;;74.17;23.23;;;;;;;;;;5047291;28;20273;-63
2022/04/02 02:30:17;;;;;;;47.80;21.90;;;;;;;;;;5041116;28;20252;-63
2022/04/02 02:32:45;;;;;;;61.27;23.57;;;;;;;;;;5047610;28;20856;-61
2022/04/02 02:38:10;;;;;;;37.00;22.67;;;;;;;;;;5046857;28;20608;-61
2022/04/02 02:40:38;;;;;;;53.23;22.60;;;;;;;;;;5034131;28;20250;-62
2022/04/02 02:43:06;;;;;;;42.53;22.47;;;;;;;;;;5036882;28;20198;-63
2022/04/02 02:45:34;;;;;;;51.20;23.07;;;;;;;;;;5035750;28;20656;-62
2022/04/02 02:48:03;;;;;;;65.60;22.43;;;;;;;;;;5027050;28;20245;-62
2022/04/02 02:50:33;;;;;;;56.83;23.40;;;;;;;;;;5035120;28;20835;-62
2022/04/02 02:53:01;;;;;;;64.53;22.33;;;;;;;;;;5039175;28;20222;-62
2022/04/02 02:55:29;;;;;;;57.73;23.73;;;;;;;;;;5039005;28;20303;-62
2022/04/02 02:57:56;;;;;;;45.30;23.13;;;;;;;;;;5038473;28;20203;-63
2022/04/02 03:00:24;;;;;;;38.07;23.33;;;;;;;;;;5042992;28;20217;-63
2022/04/02 03:02:51;;;;;;;68.77;28.60;;;;;;;;;;5030912;28;20704;-63
2022/04/02 03:05:19;;;;;;;61.83;23.70;;;;;;;;;;5037315;28;20213;-62
2022/04/02 03:07:50;;;;;;;52.30;23.90;;;;;;;;;;5033791;28;20218;-63
2022/04/02 03:10:19;;;;;;;41.57;24.83;;;;;;;;;;5034915;28;20329;-63
2022/04/02 03:12:47;;;;;;;32.20;23.03;;;;;;;;;;5047663;28;20797;-62
2022/04/02 03:15:20;;;;;;;32.30;22.67;;;;;;;;;;5047867;28;20235;-62
2022/04/02 03:17:49;;;;;;;29.27;20.47;;;;;;;;;;5026752;28;20213;-60
2022/04/02 03:20:17;;;;;;;29.00;21.07;;;;;;;;;;5026742;28;20204;-61
2022/04/02 03:22:45;;;;;;;28.47;19.37;;;;;;;;;;5045969;28;20230;-62
2022/04/02 03:25:15;;;;;;;23.07;17.73;;;;;;;;;;5037994;28;20216;-62
2022/04/02 03:27:43;;;;;;;23.27;17.40;;;;;;;;;;5044227;28;20213;-62
2022/04/02 03:30:11;;;;;;;23.13;17.40;;;;;;;;;;5048206;28;20291;-62
2022/04/02 03:32:39;;;;;;;22.77;17.40;;;;;;;;;;5030142;28;20226;-62
2022/04/02 03:35:07;;;;;;;22.00;16.87;;;;;;;;;;5045915;28;20887;-61
2022/04/02 03:37:38;;;;;;;21.53;16.13;;;;;;;;;;5046115;28;20244;-61
2022/04/02 03:40:10;;;;;;;19.73;15.77;;;;;;;;;;5037854;28;20630;-62
2022/04/02 03:42:38;;;;;;;17.90;14.83;;;;;;;;;;5037587;28;20222;-61
2022/04/02 03:45:06;;;;;;;19.37;15.17;;;;;;;;;;5043520;28;20201;-62
2022/04/02 03:47:34;;;;;;;17.93;14.70;;;;;;;;;;5039788;28;20362;-62
2022/04/02 03:50:01;;;;;;;21.37;16.33;;;;;;;;;;5034230;28;20213;-64
2022/04/02 03:52:29;;;;;;;19.87;15.30;;;;;;;;;;5030299;28;20232;-63
2022/04/02 03:54:56;;;;;;;19.17;15.30;;;;;;;;;;5029807;28;20755;-61
2022/04/02 03:57:23;;;;;;;16.07;13.80;;;;;;;;;;5025897;28;20669;-62
2022/04/02 03:59:51;;;;;;;18.17;14.37;;;;;;;;;;5031509;28;20206;-62
2022/04/02 04:02:18;;;;;;;16.80;13.60;;;;;;;;;;5026698;28;20712;-63
2022/04/02 04:04:46;;;;;;;17.43;14.43;;;;;;;;;;5029809;28;20239;-64
2022/04/02 04:07:14;;;;;;;17.27;13.87;;;;;;;;;;5044937;28;20257;-62
2022/04/02 04:09:42;;;;;;;18.17;13.80;;;;;;;;;;5029891;28;20207;-63
2022/04/02 04:12:10;;;;;;;19.57;13.63;;;;;;;;;;5038770;28;20433;-61
2022/04/02 04:14:38;;;;;;;18.47;14.23;;;;;;;;;;5030110;28;20226;-63
2022/04/02 04:17:05;;;;;;;16.43;13.80;;;;;;;;;;5030206;28;20211;-62
2022/04/02 04:19:32;;;;;;;17.60;13.83;;;;;;;;;;5031698;28;20285;-62
2022/04/02 04:22:00;;;;;;;17.10;13.97;;;;;;;;;;5034608;28;20233;-63
2022/04/02 04:24:28;;;;;;;17.77;14.37;;;;;;;;;;5028887;28;20203;-62
2022/04/02 04:26:55;;;;;;;15.73;13.97;;;;;;;;;;5045803;28;20211;-62
2022/04/02 04:29:23;;;;;;;17.23;13.47;;;;;;;;;;5038944;28;20206;-62
2022/04/02 04:31:50;;;;;;;15.23;13.00;;;;;;;;;;5046303;28;20272;-62
2022/04/02 04:34:18;;;;;;;17.47;13.07;;;;;;;;;;5034157;28;20228;-60
2022/04/02 04:36:45;;;;;;;17.00;13.07;;;;;;;;;;5043817;28;20197;-61
2022/04/02 04:39:12;;;;;;;17.40;12.10;;;;;;;;;;5048602;28;20757;-62
2022/04/02 04:41:41;;;;;;;15.77;11.97;;;;;;;;;;5033037;28;20622;-62
2022/04/02 04:44:08;;;;;;;12.87;11.17;;;;;;;;;;5050615;28;20214;-61
2022/04/02 04:46:36;;;;;;;13.83;11.33;;;;;;;;;;5034569;28;20242;-61
2022/04/02 04:49:03;;;;;;;13.10;10.80;;;;;;;;;;5036688;28;20227;-63
2022/04/02 04:51:31;;;;;;;11.13;9.93;;;;;;;;;;5030016;28;20240;-62
2022/04/02 04:53:58;;;;;;;12.27;10.30;;;;;;;;;;5039236;28;20611;-61
2022/04/02 04:56:32;;;;;;;13.23;10.70;;;;;;;;;;5059312;28;20223;-63
2022/04/02 04:58:59;;;;;;;11.17;9.70;;;;;;;;;;5032979;28;20219;-62
2022/04/02 05:01:28;;;;;;;11.87;9.77;;;;;;;;;;5027052;28;20226;-62
2022/04/02 05:03:56;;;;;;;11.37;8.80;;;;;;;;;;5034361;28;20213;-61
2022/04/02 05:06:23;;;;;;;10.83;9.57;;;;;;;;;;5044265;28;20226;-62
2022/04/02 05:08:52;;;;;;;10.80;9.57;;;;;;;;;;5041122;28;20271;-63
2022/04/02 05:11:19;;;;;;;10.83;9.53;;;;;;;;;;5043765;28;20724;-63
2022/04/02 05:13:47;;;;;;;11.60;10.07;;;;;;;;;;5046978;28;20233;-61
2022/04/02 05:16:14;;;;;;;11.67;9.40;;;;;;;;;;5029305;28;20233;-63
2022/04/02 05:18:44;;;;;;;10.97;9.60;;;;;;;;;;5046919;28;20207;-61
2022/04/02 05:21:11;;;;;;;9.60;8.60;;;;;;;;;;5045605;28;20232;-61
2022/04/02 05:23:39;;;;;;;10.17;8.57;;;;;;;;;;5037636;28;20656;-62
2022/04/02 05:26:07;;;;;;;11.67;9.37;;;;;;;;;;5047226;28;20790;-62
2022/04/02 05:28:35;;;;;;;12.27;10.10;;;;;;;;;;5047404;28;20209;-62
2022/04/02 05:31:03;;;;;;;11.00;9.53;;;;;;;;;;5041798;28;20223;-62
2022/04/02 05:33:31;;;;;;;10.27;9.07;;;;;;;;;;5046015;28;20295;-62
2022/04/02 05:36:08;;;;;;;10.27;9.17;;;;;;;;;;5061966;28;20227;-61
2022/04/02 05:38:36;;;;;;;11.07;9.70;;;;;;;;;;5045207;28;20211;-62
2022/04/02 05:41:03;;;;;;;12.13;10.00;;;;;;;;;;5057102;28;20226;-62
2022/04/02 05:43:31;;;;;;;12.50;9.93;;;;;;;;;;5025727;28;20290;-63
2022/04/02 05:45:58;;;;;;;12.93;10.17;;;;;;;;;;5040023;28;20214;-63
2022/04/02 05:48:26;;;;;;;12.50;9.97;;;;;;;;;;5036614;28;20211;-63
2022/04/02 05:50:53;;;;;;;13.67;10.47;;;;;;;;;;5048222;28;20227;-62
2022/04/02 05:53:21;;;;;;;11.77;10.47;;;;;;;;;;5047392;28;20358;-62
2022/04/02 05:55:48;;;;;;;12.33;10.43;;;;;;;;;;5041080;28;20230;-61
2022/04/02 05:58:16;;;;;;;12.67;10.83;;;;;;;;;;5047594;28;20208;-62
2022/04/02 06:00:43;;;;;;;14.13;10.17;;;;;;;;;;5048688;28;20740;-62
2022/04/02 06:03:14;;;;;;;13.07;10.50;;;;;;;;;;5027953;28;20200;-62
2022/04/02 06:05:43;;;;;;;13.97;10.87;;;;;;;;;;5035472;28;20208;-62
2022/04/02 06:08:10;;;;;;;11.83;9.57;;;;;;;;;;5034952;28;20276;-64
2022/04/02 06:10:38;;;;;;;9.60;8.60;;;;;;;;;;5044811;28;20210;-62
2022/04/02 06:13:05;;;;;;;10.10;8.73;;;;;;;;;;5046364;28;20208;-62
2022/04/02 06:15:34;;;;;;;9.17;7.97;;;;;;;;;;5051073;28;20281;-61
2022/04/02 06:18:01;;;;;;;11.73;8.40;;;;;;;;;;5032716;28;20716;-63
2022/04/02 06:20:29;;;;;;;9.83;8.30;;;;;;;;;;5035183;28;20661;-63
2022/04/02 06:22:56;;;;;;;11.10;8.27;;;;;;;;;;5040550;28;20286;-62
2022/04/02 06:25:24;;;;;;;9.10;8.20;;;;;;;;;;5047844;28;20309;-62
2022/04/02 06:27:52;;;;;;;8.53;7.50;;;;;;;;;;5037812;28;20204;-63
2022/04/02 06:30:23;;;;;;;9.07;7.30;;;;;;;;;;5027678;28;20210;-61
2022/04/02 06:32:55;;;;;;;8.80;6.90;;;;;;;;;;5047494;28;20219;-62
2022/04/02 06:35:23;;;;;;;8.40;6.73;;;;;;;;;;5044054;28;20718;-62
2022/04/02 06:37:50;;;;;;;7.77;7.00;;;;;;;;;;5050345;28;20194;-63
2022/04/02 06:40:18;;;;;;;7.40;6.70;;;;;;;;;;5031368;28;20209;-62
2022/04/02 06:42:46;;;;;;;6.90;6.30;;;;;;;;;;5048723;28;20222;-61
2022/04/02 06:45:14;;;;;;;6.43;5.83;;;;;;;;;;5044889;28;20209;-61
2022/04/02 06:47:42;;;;;;;6.70;6.10;;;;;;;;;;5028767;28;20209;-62
2022/04/02 06:50:11;;;;;;;7.50;5.87;;;;;;;;;;5061209;28;20208;-62
2022/04/02 06:52:39;;;;;;;7.27;6.50;;;;;;;;;;5046921;28;20310;-62
2022/04/02 06:55:14;;;;;;;7.37;6.47;;;;;;;;;;5027544;28;20630;-62
2022/04/02 06:57:47;;;;;;;7.30;6.43;;;;;;;;;;5045430;28;20209;-61
2022/04/02 07:00:15;;;;;;;6.27;5.67;;;;;;;;;;5040301;28;20213;-63
2022/04/02 07:02:42;;;;;;;7.30;6.03;;;;;;;;;;5019381;28;20244;-61
2022/04/02 07:05:10;;;;;;;7.90;6.27;;;;;;;;;;5034362;28;20561;-62
2022/04/02 07:07:40;;;;;;;7.77;6.80;;;;;;;;;;5020389;28;20230;-63
2022/04/02 07:10:08;;;;;;;8.50;6.60;;;;;;;;;;5021524;28;20241;-63
2022/04/02 07:12:36;;;;;;;7.30;6.60;;;;;;;;;;5036355;28;20622;-64
2022/04/02 07:15:04;;;;;;;7.37;6.67;;;;;;;;;;5019132;28;20391;-63
2022/04/02 07:17:31;;;;;;;8.20;6.90;;;;;;;;;;5026383;28;20262;-63
2022/04/02 07:19:59;;;;;;;8.33;7.20;;;;;;;;;;5056369;28;20215;-61
2022/04/02 07:22:27;;;;;;;8.07;7.27;;;;;;;;;;5039781;28;20226;-62
2022/04/02 07:24:56;;;;;;;9.50;6.90;;;;;;;;;;5034420;28;20207;-62
2022/04/02 07:27:27;;;;;;;8.30;7.40;;;;;;;;;;5033741;28;20202;-63
2022/04/02 07:29:57;;;;;;;9.40;7.33;;;;;;;;;;5029148;28;20216;-63
2022/04/02 07:32:24;;;;;;;7.73;6.43;;;;;;;;;;5052402;28;20587;-63
2022/04/02 07:34:51;;;;;;;7.20;6.30;;;;;;;;;;5033639;28;20668;-61
2022/04/02 07:37:19;;;;;;;7.27;6.33;;;;;;;;;;5032698;28;20730;-63
2022/04/02 07:39:55;;;;;;;6.57;5.87;;;;;;;;;;5022041;28;20703;-62
2022/04/02 07:42:26;;;;;;;7.70;5.73;;;;;;;;;;5037754;28;20223;-62
2022/04/02 07:45:04;;;;;;;6.80;5.97;;;;;;;;;;5019619;28;20259;-63
2022/04/02 07:47:32;;;;;;;6.27;5.67;;;;;;;;;;5035158;28;21197;-61
2022/04/02 07:50:01;;;;;;;6.20;5.60;;;;;;;;;;5034449;28;20210;-63
2022/04/02 07:52:29;;;;;;;8.13;5.83;;;;;;;;;;5018626;28;20221;-64
2022/04/02 07:55:02;;;;;;;6.93;5.40;;;;;;;;;;5018171;28;20206;-61
2022/04/02 07:57:39;;;;;;;6.20;5.60;;;;;;;;;;5030422;28;20217;-62
2022/04/02 08:00:10;;;;;;;5.50;5.00;;;;;;;;;;5056020;28;20213;-63
2022/04/02 08:02:45;;;;;;;5.57;5.03;;;;;;;;;;5034408;28;20232;-62
2022/04/02 08:05:15;;;;;;;5.43;4.93;;;;;;;;;;5036363;28;20217;-63
2022/04/02 08:07:43;;;;;;;5.00;4.60;;;;;;;;;;5036112;28;20223;-62
2022/04/02 08:10:12;;;;;;;9.00;6.03;;;;;;;;;;5012786;28;20239;-61
2022/04/02 08:12:40;;;;;;;9.63;7.40;;;;;;;;;;5036048;28;20229;-61
2022/04/02 08:15:09;;;;;;;5.97;5.43;;;;;;;;;;5037642;28;20210;-62
2022/04/02 08:17:41;;;;;;;5.50;5.00;;;;;;;;;;5038306;28;20221;-62
2022/04/02 08:20:09;;;;;;;5.50;5.00;;;;;;;;;;5046005;28;20209;-63
2022/04/02 08:22:36;;;;;;;5.17;4.67;;;;;;;;;;5028910;28;20273;-61
2022/04/02 08:25:04;;;;;;;5.23;4.73;;;;;;;;;;5041685;28;20224;-63
2022/04/02 08:27:35;;;;;;;5.77;5.27;;;;;;;;;;5044065;28;20334;-62
2022/04/02 08:30:06;;;;;;;9.67;4.77;;;;;;;;;;5056796;28;20210;-62
2022/04/02 08:32:37;;;;;;;5.90;5.37;;;;;;;;;;5061669;28;20218;-62
2022/04/02 08:35:08;;;;;;;5.73;4.87;;;;;;;;;;5039357;28;20205;-61
2022/04/02 08:38:00;;;;;;;5.10;4.60;;;;;;;;;;5059064;28;20234;-62
2022/04/02 08:40:34;;;;;;;5.43;4.93;;;;;;;;;;5028387;28;20659;-63
2022/04/02 08:43:20;;;;;;;4.87;4.37;;;;;;;;;;5047550;28;20201;-63
2022/04/02 08:46:08;;;;;;;9.40;7.47;;;;;;;;;;5042918;28;20786;-63
2022/04/02 08:48:36;;;;;;;4.93;4.53;;;;;;;;;;5020433;28;20203;-62
2022/04/02 08:51:06;;;;;;;5.00;4.60;;;;;;;;;;5042809;28;20230;-62
2022/04/02 08:53:36;;;;;;;5.07;4.53;;;;;;;;;;5052031;28;20690;-63
2022/04/02 08:56:06;;;;;;;7.67;4.67;;;;;;;;;;5038827;28;20952;-63
2022/04/02 08:58:53;;;;;;;5.33;4.93;;;;;;;;;;5027947;28;20215;-63
2022/04/02 09:01:25;;;;;;;4.83;4.43;;;;;;;;;;5057846;28;20308;-64
2022/04/02 09:03:58;;;;;;;4.90;4.50;;;;;;;;;;5034327;28;20669;-62
2022/04/02 09:06:45;;;;;;;5.33;4.83;;;;;;;;;;5053428;28;20656;-61
2022/04/02 09:09:26;;;;;;;5.00;4.60;;;;;;;;;;5030254;28;20225;-61
2022/04/02 09:12:06;;;;;;;5.20;4.40;;;;;;;;;;5034749;28;20230;-61
2022/04/02 09:14:46;;;;;;;4.43;4.07;;;;;;;;;;5027356;28;20202;-61
2022/04/02 09:17:13;;;;;;;4.70;4.30;;;;;;;;;;5033054;28;20229;-61
2022/04/02 09:19:41;;;;;;;5.50;4.30;;;;;;;;;;5035434;28;20211;-61
2022/04/02 09:22:25;;;;;;;5.27;4.77;;;;;;;;;;5043128;28;20222;-61
2022/04/02 09:24:59;;;;;;;5.10;4.23;;;;;;;;;;5041560;28;20252;-61
2022/04/02 09:27:26;;;;;;;4.43;4.03;;;;;;;;;;5038011;28;20206;-61
2022/04/02 09:35:12;;;;;;;5.10;4.60;;;;;;;;;;5018533;28;20296;-69
2022/04/02 09:38:13;;;;;;;5.40;4.90;;;;;;;;;;5008825;28;20751;-69
2022/04/02 09:41:37;;;;;;;5.17;4.67;;;;;;;;;;5003391;28;20237;-69
2022/04/02 09:58:02;;;;;;;6.23;5.53;;;;;;;;;;5539580;23;20239;-77
2022/04/02 10:01:11;;;;;;;5.70;5.00;;;;;;;;;;4976892;28;20674;-77
2022/04/02 10:04:07;;;;;;;5.47;4.67;;;;;;;;;;4961184;28;20198;-79
2022/04/02 10:07:02;;;;;;;5.23;4.83;;;;;;;;;;4971619;28;20289;-79
2022/04/02 10:09:56;;;;;;;5.60;5.00;;;;;;;;;;4983474;28;20291;-78
2022/04/02 10:12:49;;;;;;;6.23;5.10;;;;;;;;;;4973627;28;20862;-77
2022/04/02 10:15:42;;;;;;;5.50;5.10;;;;;;;;;;4971794;28;20309;-77
2022/04/02 10:18:35;;;;;;;5.40;4.90;;;;;;;;;;4978426;28;20787;-78
2022/04/02 10:21:34;;;;;;;5.13;4.73;;;;;;;;;;4991738;28;20223;-78
2022/04/02 11:59:16;;;;;;;6.07;5.47;;;;;;;;;;5009697;23;20318;-76
2022/04/02 12:01:44;;;;;;;6.73;6.07;;;;;;;;;;5007072;28;20242;-77
2022/04/02 12:04:14;;;;;;;6.47;5.87;;;;;;;;;;5013956;28;20633;-76
2022/04/02 12:06:43;;;;;;;5.70;5.20;;;;;;;;;;5012246;28;20562;-78
2022/04/02 12:09:13;;;;;;;6.43;5.87;;;;;;;;;;5001963;28;20303;-77
2022/04/02 12:11:43;;;;;;;6.40;5.80;;;;;;;;;;5018658;28;20213;-76
2022/04/02 12:14:11;;;;;;;6.57;5.97;;;;;;;;;;5018136;28;20214;-77
2022/04/02 12:16:41;;;;;;;6.87;6.17;;;;;;;;;;5012525;28;20239;-77
2022/04/02 12:19:11;;;;;;;9.77;6.87;;;;;;;;;;5020178;28;20304;-77
2022/04/02 12:21:43;;;;;;;7.20;6.50;;;;;;;;;;5017096;28;20204;-77
2022/04/02 12:24:13;;;;;;;7.10;6.40;;;;;;;;;;5000100;28;20212;-76
2022/04/02 12:26:43;;;;;;;6.83;6.13;;;;;;;;;;5019420;28;20250;-79
2022/04/02 12:29:19;;;;;;;6.77;6.17;;;;;;;;;;5011183;28;21053;-76
2022/04/02 12:31:51;;;;;;;6.50;5.90;;;;;;;;;;4999177;28;20242;-77
2022/04/02 12:34:23;;;;;;;7.10;6.50;;;;;;;;;;5005827;28;20199;-77
2022/04/02 12:36:59;;;;;;;7.37;6.67;;;;;;;;;;5014416;28;20334;-76
2022/04/02 12:39:27;;;;;;;6.90;6.20;;;;;;;;;;5004349;28;20230;-77
2022/04/02 12:41:56;;;;;;;6.20;5.70;;;;;;;;;;5020322;28;20230;-76
2022/04/02 12:44:24;;;;;;;6.20;5.60;;;;;;;;;;5013856;28;20209;-77
2022/04/02 12:46:52;;;;;;;6.30;5.70;;;;;;;;;;5018351;28;20673;-78
2022/04/02 12:49:31;;;;;;;7.13;6.43;;;;;;;;;;5019029;28;20277;-78
2022/04/02 12:52:11;;;;;;;7.23;6.60;;;;;;;;;;5016125;28;20269;-76
2022/04/02 12:54:44;;;;;;;7.50;6.73;;;;;;;;;;5008999;28;20294;-77
2022/04/02 12:57:13;;;;;;;7.37;6.67;;;;;;;;;;5003857;28;20235;-78
2022/04/02 12:59:43;;;;;;;6.90;6.30;;;;;;;;;;4999011;28;20233;-79
2022/04/02 13:02:16;;;;;;;7.10;6.50;;;;;;;;;;5018262;28;20266;-78
2022/04/02 13:04:51;;;;;;;8.07;7.27;;;;;;;;;;5007732;28;20215;-77
2022/04/02 13:07:23;;;;;;;9.50;8.50;;;;;;;;;;5016500;28;20210;-77
2022/04/02 13:09:52;;;;;;;8.77;7.53;;;;;;;;;;5011514;28;21019;-79
2022/04/02 13:12:23;;;;;;;7.70;6.93;;;;;;;;;;4996989;28;20202;-79
2022/04/02 13:15:11;;;;;;;8.50;7.30;;;;;;;;;;5004723;28;20698;-80
2022/04/02 13:20:36;;;;;;;7.47;6.77;;;;;;;;;;5010623;28;20207;-77
2022/04/02 13:23:05;;;;;;;7.20;6.60;;;;;;;;;;4997541;28;20231;-75
2022/04/02 13:25:40;;;;;;;8.17;7.30;;;;;;;;;;5014450;28;20207;-75
2022/04/02 13:28:14;;;;;;;8.27;7.43;;;;;;;;;;5018822;28;20237;-77
2022/04/02 13:30:44;;;;;;;7.93;7.13;;;;;;;;;;5005567;28;20204;-77
2022/04/02 13:33:31;;;;;;;7.10;6.50;;;;;;;;;;5006278;28;20207;-78
2022/04/02 13:36:17;;;;;;;8.20;7.40;;;;;;;;;;5011470;28;20245;-78
2022/04/02 13:38:55;;;;;;;9.03;7.73;;;;;;;;;;5012169;28;20358;-77
2022/04/02 13:41:24;;;;;;;7.90;7.13;;;;;;;;;;5011616;28;20217;-79
2022/04/02 13:43:57;;;;;;;7.97;7.23;;;;;;;;;;5013494;28;20249;-77
2022/04/02 13:46:29;;;;;;;7.63;6.83;;;;;;;;;;5007873;28;20203;-79
2022/04/02 13:49:05;;;;;;;8.03;7.23;;;;;;;;;;5024457;28;20264;-77
2022/04/02 13:51:37;;;;;;;7.53;6.73;;;;;;;;;;5012408;28;20238;-78
2022/04/02 13:54:10;;;;;;;7.53;6.83;;;;;;;;;;5020611;28;20258;-79
2022/04/02 13:56:40;;;;;;;8.47;7.67;;;;;;;;;;5017171;28;20254;-78
2022/04/02 13:59:11;;;;;;;9.70;8.70;;;;;;;;;;5002240;28;20305;-77
2022/04/02 14:01:45;;;;;;;9.03;8.10;;;;;;;;;;5019740;28;20210;-77
2022/04/02 14:04:14;;;;;;;8.83;7.93;;;;;;;;;;5024568;28;21586;-79
2022/04/02 14:06:44;;;;;;;8.57;7.77;;;;;;;;;;5019873;28;20609;-80
2022/04/02 14:09:13;;;;;;;8.17;7.30;;;;;;;;;;5002094;28;20334;-80
2022/04/02 14:11:43;;;;;;;8.03;7.23;;;;;;;;;;5018654;28;20340;-79
2022/04/02 14:14:14;;;;;;;10.13;7.73;;;;;;;;;;5019223;28;20210;-79
2022/04/02 14:16:49;;;;;;;9.07;8.17;;;;;;;;;;5021400;28;20309;-78
2022/04/02 14:19:19;;;;;;;8.53;7.73;;;;;;;;;;5004548;28;20226;-79
2022/04/02 14:21:50;;;;;;;9.47;7.97;;;;;;;;;;5015212;28;20253;-79
2022/04/02 14:24:20;;;;;;;8.80;7.90;;;;;;;;;;5013547;28;20207;-79
2022/04/02 14:27:04;;;;;;;7.83;7.13;;;;;;;;;;5015378;28;20202;-77
2022/04/02 14:29:51;;;;;;;8.07;7.27;;;;;;;;;;5021771;28;20812;-78
2022/04/02 14:32:32;;;;;;;8.10;7.40;;;;;;;;;;5019564;28;20644;-77
2022/04/02 14:35:02;;;;;;;7.43;6.73;;;;;;;;;;5021729;28;20238;-78
2022/04/02 14:37:52;;;;;;;7.70;7.00;;;;;;;;;;4999616;28;20225;-80
2022/04/02 14:40:21;;;;;;;14.40;11.07;;;;;;;;;;5013169;28;20247;-79
2022/04/02 14:42:48;;;;;;;10.87;9.50;;;;;;;;;;5018853;28;20237;-79
2022/04/02 14:45:56;;;;;;;8.33;7.43;;;;;;;;;;5018002;28;20199;-77
2022/04/02 14:48:35;;;;;;;9.23;8.20;;;;;;;;;;4975390;28;20334;-81
2022/04/02 14:51:02;;;;;;;9.93;8.33;;;;;;;;;;5008624;28;20222;-83
2022/04/02 14:53:37;;;;;;;9.20;8.30;;;;;;;;;;5007995;28;20199;-83
2022/04/02 14:56:04;;;;;;;9.30;8.00;;;;;;;;;;5015016;28;20287;-79
2022/04/02 14:58:34;;;;;;;10.73;8.60;;;;;;;;;;5014265;28;20378;-81
2022/04/02 15:01:16;;;;;;;9.13;8.23;;;;;;;;;;5011383;28;20840;-80
2022/04/02 15:04:03;;;;;;;9.13;8.23;;;;;;;;;;5015572;28;20203;-77
2022/04/02 15:06:50;;;;;;;8.60;7.80;;;;;;;;;;5017147;28;20538;-80
2022/04/02 15:09:38;;;;;;;17.33;11.80;;;;;;;;;;5011383;28;20305;-78
2022/04/02 15:12:09;;;;;;;8.70;7.80;;;;;;;;;;5008300;28;20218;-78
2022/04/02 15:14:45;;;;;;;11.20;8.63;;;;;;;;;;5009430;28;20679;-79
2022/04/02 15:17:24;;;;;;;26.03;13.90;;;;;;;;;;5016967;28;20304;-79
2022/04/02 15:19:52;;;;;;;61.90;23.87;;;;;;;;;;5012309;28;20222;-77
2022/04/02 15:22:25;;;;;;;184.70;69.07;;;;;;;;;;4991998;28;20214;-78
2022/04/02 15:25:14;;;;;;;15.87;10.70;;;;;;;;;;4990715;28;20207;-76
2022/04/02 15:28:02;;;;;;;8.83;7.97;;;;;;;;;;5008574;28;20261;-79
2022/04/02 15:30:32;;;;;;;10.47;8.70;;;;;;;;;;5015125;28;20688;-77
2022/04/02 15:33:09;;;;;;;9.77;8.57;;;;;;;;;;5015770;28;20203;-79
2022/04/02 15:35:58;;;;;;;9.70;8.77;;;;;;;;;;5005576;28;20202;-77
2022/04/02 15:38:51;;;;;;;10.97;9.87;;;;;;;;;;5020675;28;20790;-76
2022/04/02 15:41:18;;;;;;;9.77;8.87;;;;;;;;;;5015366;28;20211;-77
2022/04/02 15:43:49;;;;;;;9.80;8.80;;;;;;;;;;5011068;28;20199;-78
2022/04/02 15:46:23;;;;;;;10.70;9.60;;;;;;;;;;5014334;28;20199;-81
2022/04/02 15:49:09;;;;;;;13.03;10.47;;;;;;;;;;5014757;28;20611;-77
2022/04/02 15:51:53;;;;;;;10.40;9.40;;;;;;;;;;5016113;28;20211;-78
2022/04/02 15:54:27;;;;;;;9.97;8.97;;;;;;;;;;5011523;28;20203;-80
2022/04/02 15:57:03;;;;;;;11.50;10.30;;;;;;;;;;5015977;28;20321;-78
2022/04/02 15:59:31;;;;;;;13.30;11.23;;;;;;;;;;5015318;28;20234;-80
2022/04/02 16:02:00;;;;;;;10.27;9.23;;;;;;;;;;5017877;28;20467;-76
2022/04/02 16:04:28;;;;;;;11.00;9.90;;;;;;;;;;5021813;28;20772;-76
2022/04/02 16:07:16;;;;;;;12.17;10.53;;;;;;;;;;5028371;28;20216;-78
2022/04/02 16:10:02;;;;;;;11.90;9.87;;;;;;;;;;5001732;28;20280;-78
2022/04/02 16:12:31;;;;;;;11.73;10.53;;;;;;;;;;5013248;28;20226;-77
2022/04/02 16:15:19;;;;;;;20.70;15.80;;;;;;;;;;5029537;28;20659;-78
2022/04/02 16:18:06;;;;;;;18.27;13.53;;;;;;;;;;5028992;28;20714;-80
2022/04/02 16:20:34;;;;;;;17.50;14.00;;;;;;;;;;5029102;28;20194;-77
2022/04/02 16:23:02;;;;;;;20.60;16.73;;;;;;;;;;5013705;28;20219;-78
2022/04/02 16:25:30;;;;;;;13.53;11.83;;;;;;;;;;5023830;28;20251;-77
2022/04/02 16:27:59;;;;;;;12.80;11.33;;;;;;;;;;5009577;28;20234;-79
2022/04/02 16:30:27;;;;;;;12.33;11.03;;;;;;;;;;5019658;28;20213;-78
2022/04/02 16:32:57;;;;;;;13.47;11.90;;;;;;;;;;5022027;28;20265;-79
2022/04/02 16:35:24;;;;;;;12.77;11.27;;;;;;;;;;5021182;28;20207;-79
2022/04/02 16:38:06;;;;;;;12.00;10.67;;;;;;;;;;5020165;28;20233;-81
2022/04/02 16:40:36;;;;;;;12.00;10.77;;;;;;;;;;5035171;28;20195;-81
2022/04/02 16:43:06;;;;;;;12.60;10.93;;;;;;;;;;5026693;28;20222;-78
2022/04/02 16:45:33;;;;;;;12.23;10.87;;;;;;;;;;5020585;28;20624;-80
2022/04/02 16:48:01;;;;;;;12.73;9.93;;;;;;;;;;5008626;28;20648;-77
2022/04/02 16:50:32;;;;;;;12.93;10.93;;;;;;;;;;5019691;28;20202;-78
2022/04/02 16:52:59;;;;;;;13.93;12.27;;;;;;;;;;5015200;28;20305;-79
2022/04/02 16:55:29;;;;;;;11.83;10.53;;;;;;;;;;5005946;28;20725;-78